sensor_id;sensor_type;location;lat;lon;timestamp;pressure;altitude;pressure_sealevel;temperature;humidity
28027;BME280;15344;52.342;-1.290;2023-01-28T00:01:04;101815.81;;;10.19;59.64
28027;BME280;15344;52.342;-1.290;2023-01-28T00:03:27;101811.29;;;10.61;58.84
28027;BME280;15344;52.342;-1.290;2023-01-28T00:06:01;101813.69;;;10.70;58.21
28027;BME280;15344;52.342;-1.290;2023-01-28T00:08:19;101814.70;;;10.14;59.09
28027;BME280;15344;52.342;-1.290;2023-01-28T00:10:44;101816.44;;;9.78;60.81
28027;BME280;15344;52.342;-1.290;2023-01-28T00:13:11;101820.29;;;9.47;62.31
28027;BME280;15344;52.342;-1.290;2023-01-28T00:15:34;101822.32;;;10.16;59.77
28027;BME280;15344;52.342;-1.290;2023-01-28T00:18:00;101821.56;;;9.98;61.12
28027;BME280;15344;52.342;-1.290;2023-01-28T00:20:26;101818.25;;;9.68;62.59
28027;BME280;15344;52.342;-1.290;2023-01-28T00:22:51;101814.71;;;10.33;60.81
28027;BME280;15344;52.342;-1.290;2023-01-28T00:25:17;101818.41;;;10.71;60.16
28027;BME280;15344;52.342;-1.290;2023-01-28T00:27:43;101815.03;;;9.81;63.02
28027;BME280;15344;52.342;-1.290;2023-01-28T00:30:09;101818.92;;;9.96;62.79
28027;BME280;15344;52.342;-1.290;2023-01-28T00:32:34;101812.85;;;10.31;61.60
28027;BME280;15344;52.342;-1.290;2023-01-28T00:35:00;101807.10;;;10.55;59.93
28027;BME280;15344;52.342;-1.290;2023-01-28T00:37:25;101797.44;;;10.54;61.51
28027;BME280;15344;52.342;-1.290;2023-01-28T00:39:50;101792.07;;;10.47;61.57
28027;BME280;15344;52.342;-1.290;2023-01-28T00:42:16;101791.91;;;10.25;60.82
28027;BME280;15344;52.342;-1.290;2023-01-28T00:44:42;101793.19;;;10.54;59.29
28027;BME280;15344;52.342;-1.290;2023-01-28T00:47:07;101793.41;;;10.14;59.18
28027;BME280;15344;52.342;-1.290;2023-01-28T00:49:33;101786.70;;;10.45;60.21
28027;BME280;15344;52.342;-1.290;2023-01-28T00:51:57;101787.61;;;10.58;59.71
28027;BME280;15344;52.342;-1.290;2023-01-28T00:54:23;101785.06;;;10.08;60.77
28027;BME280;15344;52.342;-1.290;2023-01-28T00:56:49;101782.17;;;10.49;58.86
28027;BME280;15344;52.342;-1.290;2023-01-28T00:59:14;101779.21;;;10.46;59.65
28027;BME280;15344;52.342;-1.290;2023-01-28T01:01:39;101773.17;;;10.46;60.77
28027;BME280;15344;52.342;-1.290;2023-01-28T01:04:04;101764.72;;;10.62;59.45
28027;BME280;15344;52.342;-1.290;2023-01-28T01:06:32;101762.42;;;9.95;62.20
28027;BME280;15344;52.342;-1.290;2023-01-28T01:08:55;101762.09;;;10.77;58.64
28027;BME280;15344;52.342;-1.290;2023-01-28T01:11:21;101763.91;;;10.16;61.26
28027;BME280;15344;52.342;-1.290;2023-01-28T01:13:50;101769.37;;;10.71;59.60
28027;BME280;15344;52.342;-1.290;2023-01-28T01:16:14;101769.70;;;10.19;61.81
28027;BME280;15344;52.342;-1.290;2023-01-28T01:18:38;101766.21;;;10.41;59.92
28027;BME280;15344;52.342;-1.290;2023-01-28T01:21:03;101768.81;;;10.61;61.19
28027;BME280;15344;52.342;-1.290;2023-01-28T01:23:29;101770.20;;;10.72;59.82
28027;BME280;15344;52.342;-1.290;2023-01-28T01:25:53;101768.40;;;9.69;63.92
28027;BME280;15344;52.342;-1.290;2023-01-28T01:28:19;101767.53;;;10.34;62.00
28027;BME280;15344;52.342;-1.290;2023-01-28T01:30:44;101760.78;;;10.43;62.26
28027;BME280;15344;52.342;-1.290;2023-01-28T01:33:10;101759.91;;;10.51;60.26
28027;BME280;15344;52.342;-1.290;2023-01-28T01:35:36;101762.14;;;10.50;60.13
28027;BME280;15344;52.342;-1.290;2023-01-28T01:38:01;101763.68;;;10.32;60.75
28027;BME280;15344;52.342;-1.290;2023-01-28T01:40:28;101757.90;;;9.49;66.45
28027;BME280;15344;52.342;-1.290;2023-01-28T01:42:51;101758.47;;;10.37;61.32
28027;BME280;15344;52.342;-1.290;2023-01-28T01:45:17;101758.46;;;10.56;60.56
28027;BME280;15344;52.342;-1.290;2023-01-28T01:47:46;101756.43;;;10.02;61.25
28027;BME280;15344;52.342;-1.290;2023-01-28T01:50:16;101764.65;;;10.30;59.90
28027;BME280;15344;52.342;-1.290;2023-01-28T01:52:35;101769.15;;;9.93;64.41
28027;BME280;15344;52.342;-1.290;2023-01-28T01:55:00;101773.44;;;10.31;62.89
28027;BME280;15344;52.342;-1.290;2023-01-28T01:57:28;101775.66;;;10.01;63.50
28027;BME280;15344;52.342;-1.290;2023-01-28T01:59:50;101769.56;;;9.63;66.41
28027;BME280;15344;52.342;-1.290;2023-01-28T02:02:15;101771.36;;;10.49;62.11
28027;BME280;15344;52.342;-1.290;2023-01-28T02:04:42;101774.85;;;9.82;64.71
28027;BME280;15344;52.342;-1.290;2023-01-28T02:07:08;101775.44;;;9.57;66.62
28027;BME280;15344;52.342;-1.290;2023-01-28T02:09:33;101776.53;;;9.92;65.72
28027;BME280;15344;52.342;-1.290;2023-01-28T02:11:58;101770.66;;;9.92;59.51
28027;BME280;15344;52.342;-1.290;2023-01-28T02:14:25;101775.15;;;10.07;59.15
28027;BME280;15344;52.342;-1.290;2023-01-28T02:16:48;101777.01;;;10.15;60.43
28027;BME280;15344;52.342;-1.290;2023-01-28T02:19:15;101773.97;;;10.09;60.65
28027;BME280;15344;52.342;-1.290;2023-01-28T02:24:20;101780.91;;;10.81;61.03
28027;BME280;15344;52.342;-1.290;2023-01-28T02:26:43;101784.51;;;10.23;60.78
28027;BME280;15344;52.342;-1.290;2023-01-28T02:29:00;101782.22;;;9.65;64.32
28027;BME280;15344;52.342;-1.290;2023-01-28T02:31:25;101784.85;;;10.22;62.85
28027;BME280;15344;52.342;-1.290;2023-01-28T02:33:51;101779.57;;;10.28;62.32
28027;BME280;15344;52.342;-1.290;2023-01-28T02:36:18;101781.62;;;9.97;62.18
28027;BME280;15344;52.342;-1.290;2023-01-28T02:38:41;101782.47;;;10.42;61.40
28027;BME280;15344;52.342;-1.290;2023-01-28T02:41:08;101789.49;;;10.43;61.15
28027;BME280;15344;52.342;-1.290;2023-01-28T02:43:31;101790.70;;;10.14;64.37
28027;BME280;15344;52.342;-1.290;2023-01-28T02:45:54;101793.32;;;10.22;63.03
28027;BME280;15344;52.342;-1.290;2023-01-28T02:48:21;101790.51;;;10.01;62.21
28027;BME280;15344;52.342;-1.290;2023-01-28T02:50:51;101790.98;;;10.44;61.74
28027;BME280;15344;52.342;-1.290;2023-01-28T02:53:19;101787.10;;;10.08;64.12
28027;BME280;15344;52.342;-1.290;2023-01-28T02:55:41;101789.43;;;10.49;61.82
28027;BME280;15344;52.342;-1.290;2023-01-28T02:58:07;101790.42;;;9.71;64.68
28027;BME280;15344;52.342;-1.290;2023-01-28T03:00:31;101794.58;;;10.30;62.71
28027;BME280;15344;52.342;-1.290;2023-01-28T03:02:58;101786.42;;;10.36;63.83
28027;BME280;15344;52.342;-1.290;2023-01-28T03:05:24;101784.39;;;10.55;63.34
28027;BME280;15344;52.342;-1.290;2023-01-28T03:07:43;101774.90;;;10.04;64.40
28027;BME280;15344;52.342;-1.290;2023-01-28T03:10:11;101774.37;;;10.23;62.81
28027;BME280;15344;52.342;-1.290;2023-01-28T03:12:36;101769.41;;;10.13;61.86
28027;BME280;15344;52.342;-1.290;2023-01-28T03:15:03;101769.75;;;10.19;63.81
28027;BME280;15344;52.342;-1.290;2023-01-28T03:17:27;101769.90;;;10.50;60.68
28027;BME280;15344;52.342;-1.290;2023-01-28T03:19:50;101764.68;;;9.97;62.68
28027;BME280;15344;52.342;-1.290;2023-01-28T03:22:16;101752.23;;;10.22;61.17
28027;BME280;15344;52.342;-1.290;2023-01-28T03:24:45;101745.89;;;10.58;58.53
28027;BME280;15344;52.342;-1.290;2023-01-28T03:27:12;101750.00;;;10.29;60.15
28027;BME280;15344;52.342;-1.290;2023-01-28T03:29:32;101760.48;;;10.21;59.96
28027;BME280;15344;52.342;-1.290;2023-01-28T03:31:58;101759.16;;;10.74;61.59
28027;BME280;15344;52.342;-1.290;2023-01-28T03:34:23;101756.13;;;9.67;65.43
28027;BME280;15344;52.342;-1.290;2023-01-28T03:36:49;101758.52;;;10.24;63.56
28027;BME280;15344;52.342;-1.290;2023-01-28T03:39:14;101757.80;;;9.70;66.73
28027;BME280;15344;52.342;-1.290;2023-01-28T03:41:39;101763.03;;;10.00;65.13
28027;BME280;15344;52.342;-1.290;2023-01-28T03:44:05;101765.80;;;10.46;61.64
28027;BME280;15344;52.342;-1.290;2023-01-28T03:46:30;101760.75;;;10.63;62.16
28027;BME280;15344;52.342;-1.290;2023-01-28T03:48:56;101755.51;;;10.53;61.10
28027;BME280;15344;52.342;-1.290;2023-01-28T03:51:21;101750.46;;;10.36;61.53
28027;BME280;15344;52.342;-1.290;2023-01-28T03:53:46;101746.89;;;10.12;58.74
28027;BME280;15344;52.342;-1.290;2023-01-28T03:56:12;101743.89;;;9.99;60.61
28027;BME280;15344;52.342;-1.290;2023-01-28T03:58:37;101743.75;;;9.75;61.18
28027;BME280;15344;52.342;-1.290;2023-01-28T04:01:03;101750.66;;;10.30;59.15
28027;BME280;15344;52.342;-1.290;2023-01-28T04:03:29;101742.63;;;9.08;65.61
28027;BME280;15344;52.342;-1.290;2023-01-28T04:05:59;101744.56;;;9.71;63.52
28027;BME280;15344;52.342;-1.290;2023-01-28T04:08:19;101748.87;;;9.66;62.56
28027;BME280;15344;52.342;-1.290;2023-01-28T04:10:44;101746.54;;;9.94;64.13
28027;BME280;15344;52.342;-1.290;2023-01-28T04:13:10;101755.66;;;10.17;63.41
28027;BME280;15344;52.342;-1.290;2023-01-28T04:15:35;101764.09;;;9.45;65.60
28027;BME280;15344;52.342;-1.290;2023-01-28T04:18:01;101769.48;;;10.47;63.76
28027;BME280;15344;52.342;-1.290;2023-01-28T04:20:26;101764.56;;;10.29;60.83
28027;BME280;15344;52.342;-1.290;2023-01-28T04:22:51;101762.10;;;10.43;61.59
28027;BME280;15344;52.342;-1.290;2023-01-28T04:25:16;101764.25;;;9.61;64.39
28027;BME280;15344;52.342;-1.290;2023-01-28T04:27:42;101765.07;;;9.23;66.35
28027;BME280;15344;52.342;-1.290;2023-01-28T04:30:08;101766.55;;;9.92;64.75
28027;BME280;15344;52.342;-1.290;2023-01-28T04:32:33;101763.07;;;9.74;63.62
28027;BME280;15344;52.342;-1.290;2023-01-28T04:34:58;101760.09;;;10.29;61.39
28027;BME280;15344;52.342;-1.290;2023-01-28T04:37:24;101758.11;;;9.94;61.92
28027;BME280;15344;52.342;-1.290;2023-01-28T04:39:50;101759.56;;;9.64;62.78
28027;BME280;15344;52.342;-1.290;2023-01-28T04:42:15;101763.12;;;9.92;62.27
28027;BME280;15344;52.342;-1.290;2023-01-28T04:44:40;101759.29;;;9.69;62.15
28027;BME280;15344;52.342;-1.290;2023-01-28T04:47:06;101762.40;;;9.30;62.84
28027;BME280;15344;52.342;-1.290;2023-01-28T04:49:31;101758.51;;;9.13;63.03
28027;BME280;15344;52.342;-1.290;2023-01-28T04:51:57;101761.49;;;9.54;63.49
28027;BME280;15344;52.342;-1.290;2023-01-28T04:54:22;101766.43;;;9.31;62.43
28027;BME280;15344;52.342;-1.290;2023-01-28T04:56:48;101775.13;;;9.35;61.98
28027;BME280;15344;52.342;-1.290;2023-01-28T04:59:13;101778.08;;;9.41;62.29
28027;BME280;15344;52.342;-1.290;2023-01-28T05:01:39;101770.76;;;9.42;62.78
28027;BME280;15344;52.342;-1.290;2023-01-28T05:04:04;101764.57;;;9.48;62.10
28027;BME280;15344;52.342;-1.290;2023-01-28T05:06:30;101758.08;;;9.62;62.64
28027;BME280;15344;52.342;-1.290;2023-01-28T05:08:55;101753.35;;;9.49;61.94
28027;BME280;15344;52.342;-1.290;2023-01-28T05:11:21;101757.69;;;9.86;61.97
28027;BME280;15344;52.342;-1.290;2023-01-28T05:13:46;101748.00;;;9.45;62.81
28027;BME280;15344;52.342;-1.290;2023-01-28T05:16:11;101752.18;;;9.16;64.38
28027;BME280;15344;52.342;-1.290;2023-01-28T05:18:37;101749.69;;;9.32;63.61
28027;BME280;15344;52.342;-1.290;2023-01-28T05:21:08;101751.34;;;9.35;63.41
28027;BME280;15344;52.342;-1.290;2023-01-28T05:23:28;101756.60;;;9.73;62.92
28027;BME280;15344;52.342;-1.290;2023-01-28T05:25:53;101759.95;;;9.20;62.60
28027;BME280;15344;52.342;-1.290;2023-01-28T05:28:19;101760.37;;;9.89;62.18
28027;BME280;15344;52.342;-1.290;2023-01-28T05:30:44;101755.44;;;10.17;60.89
28027;BME280;15344;52.342;-1.290;2023-01-28T05:33:09;101756.76;;;9.96;60.84
28027;BME280;15344;52.342;-1.290;2023-01-28T05:35:35;101759.77;;;9.95;61.21
28027;BME280;15344;52.342;-1.290;2023-01-28T05:38:00;101759.24;;;9.92;61.26
28027;BME280;15344;52.342;-1.290;2023-01-28T05:40:25;101760.49;;;10.05;60.62
28027;BME280;15344;52.342;-1.290;2023-01-28T05:42:51;101762.41;;;9.91;59.88
28027;BME280;15344;52.342;-1.290;2023-01-28T05:45:16;101766.75;;;9.78;60.06
28027;BME280;15344;52.342;-1.290;2023-01-28T05:47:41;101759.60;;;10.21;59.54
28027;BME280;15344;52.342;-1.290;2023-01-28T05:50:08;101762.68;;;9.97;59.41
28027;BME280;15344;52.342;-1.290;2023-01-28T05:52:32;101766.20;;;9.71;60.74
28027;BME280;15344;52.342;-1.290;2023-01-28T05:54:58;101767.35;;;9.45;61.92
28027;BME280;15344;52.342;-1.290;2023-01-28T05:57:24;101767.53;;;10.26;60.49
28027;BME280;15344;52.342;-1.290;2023-01-28T05:59:49;101765.72;;;10.14;63.57
28027;BME280;15344;52.342;-1.290;2023-01-28T06:02:15;101768.56;;;10.31;59.70
28027;BME280;15344;52.342;-1.290;2023-01-28T06:04:41;101770.52;;;10.00;60.99
28027;BME280;15344;52.342;-1.290;2023-01-28T06:07:06;101770.92;;;9.99;62.04
28027;BME280;15344;52.342;-1.290;2023-01-28T06:09:32;101770.27;;;10.39;60.88
28027;BME280;15344;52.342;-1.290;2023-01-28T06:11:57;101773.21;;;10.01;60.34
28027;BME280;15344;52.342;-1.290;2023-01-28T06:14:22;101776.83;;;10.22;59.92
28027;BME280;15344;52.342;-1.290;2023-01-28T06:16:48;101767.76;;;9.83;59.77
28027;BME280;15344;52.342;-1.290;2023-01-28T06:19:13;101769.51;;;9.84;60.24
28027;BME280;15344;52.342;-1.290;2023-01-28T06:21:39;101769.63;;;9.94;59.67
28027;BME280;15344;52.342;-1.290;2023-01-28T06:24:05;101775.11;;;9.51;61.12
28027;BME280;15344;52.342;-1.290;2023-01-28T06:26:31;101776.63;;;9.13;61.77
28027;BME280;15344;52.342;-1.290;2023-01-28T06:28:56;101777.06;;;10.04;60.26
28027;BME280;15344;52.342;-1.290;2023-01-28T06:31:21;101780.95;;;10.04;60.00
28027;BME280;15344;52.342;-1.290;2023-01-28T06:33:47;101780.11;;;9.67;60.85
28027;BME280;15344;52.342;-1.290;2023-01-28T06:36:12;101779.69;;;9.91;60.96
28027;BME280;15344;52.342;-1.290;2023-01-28T06:38:37;101774.74;;;9.49;61.58
28027;BME280;15344;52.342;-1.290;2023-01-28T06:41:03;101773.23;;;10.16;61.81
28027;BME280;15344;52.342;-1.290;2023-01-28T06:43:28;101771.03;;;9.93;60.75
28027;BME280;15344;52.342;-1.290;2023-01-28T06:45:54;101766.12;;;9.62;61.24
28027;BME280;15344;52.342;-1.290;2023-01-28T06:48:19;101764.89;;;9.31;62.22
28027;BME280;15344;52.342;-1.290;2023-01-28T06:50:46;101771.67;;;10.01;60.85
28027;BME280;15344;52.342;-1.290;2023-01-28T06:53:10;101766.90;;;10.02;60.74
28027;BME280;15344;52.342;-1.290;2023-01-28T06:55:35;101762.21;;;9.40;61.11
28027;BME280;15344;52.342;-1.290;2023-01-28T06:58:00;101765.44;;;9.43;62.13
28027;BME280;15344;52.342;-1.290;2023-01-28T07:00:25;101766.32;;;9.98;60.74
28027;BME280;15344;52.342;-1.290;2023-01-28T07:02:54;101767.34;;;9.90;60.17
28027;BME280;15344;52.342;-1.290;2023-01-28T07:05:17;101766.65;;;9.55;60.06
28027;BME280;15344;52.342;-1.290;2023-01-28T07:07:42;101762.71;;;9.09;60.65
28027;BME280;15344;52.342;-1.290;2023-01-28T07:10:09;101769.39;;;9.78;60.81
28027;BME280;15344;52.342;-1.290;2023-01-28T07:12:33;101776.63;;;9.80;61.00
28027;BME280;15344;52.342;-1.290;2023-01-28T07:14:58;101774.91;;;9.70;60.24
28027;BME280;15344;52.342;-1.290;2023-01-28T07:17:24;101773.67;;;9.45;60.47
28027;BME280;15344;52.342;-1.290;2023-01-28T07:19:49;101778.71;;;9.66;60.29
28027;BME280;15344;52.342;-1.290;2023-01-28T07:22:15;101774.30;;;9.86;61.30
28027;BME280;15344;52.342;-1.290;2023-01-28T07:24:40;101777.25;;;10.13;59.37
28027;BME280;15344;52.342;-1.290;2023-01-28T07:27:06;101776.38;;;9.40;60.92
28027;BME280;15344;52.342;-1.290;2023-01-28T07:29:32;101773.89;;;9.89;59.97
28027;BME280;15344;52.342;-1.290;2023-01-28T07:31:57;101771.95;;;10.17;59.66
28027;BME280;15344;52.342;-1.290;2023-01-28T07:34:22;101773.17;;;10.00;59.30
28027;BME280;15344;52.342;-1.290;2023-01-28T07:36:48;101779.63;;;10.02;59.17
28027;BME280;15344;52.342;-1.290;2023-01-28T07:39:13;101773.66;;;9.90;60.04
28027;BME280;15344;52.342;-1.290;2023-01-28T07:41:38;101775.26;;;10.17;59.04
28027;BME280;15344;52.342;-1.290;2023-01-28T07:44:04;101775.40;;;10.10;61.10
28027;BME280;15344;52.342;-1.290;2023-01-28T07:46:29;101776.03;;;9.76;59.23
28027;BME280;15344;52.342;-1.290;2023-01-28T07:48:55;101780.18;;;10.30;59.63
28027;BME280;15344;52.342;-1.290;2023-01-28T07:51:20;101783.17;;;9.53;60.08
28027;BME280;15344;52.342;-1.290;2023-01-28T07:53:46;101786.91;;;9.87;60.01
28027;BME280;15344;52.342;-1.290;2023-01-28T07:56:12;101784.77;;;9.79;60.70
28027;BME280;15344;52.342;-1.290;2023-01-28T07:58:37;101794.97;;;9.65;61.09
28027;BME280;15344;52.342;-1.290;2023-01-28T08:01:03;101796.49;;;9.14;63.53
28027;BME280;15344;52.342;-1.290;2023-01-28T08:03:28;101800.91;;;9.76;62.28
28027;BME280;15344;52.342;-1.290;2023-01-28T08:05:54;101796.67;;;9.58;62.59
28027;BME280;15344;52.342;-1.290;2023-01-28T08:08:19;101801.66;;;9.79;61.96
28027;BME280;15344;52.342;-1.290;2023-01-28T08:10:44;101797.60;;;9.75;61.13
28027;BME280;15344;52.342;-1.290;2023-01-28T08:13:10;101800.91;;;9.28;62.75
28027;BME280;15344;52.342;-1.290;2023-01-28T08:15:35;101795.21;;;9.38;62.45
28027;BME280;15344;52.342;-1.290;2023-01-28T08:18:01;101807.52;;;9.69;62.92
28027;BME280;15344;52.342;-1.290;2023-01-28T08:20:27;101810.60;;;8.69;64.86
28027;BME280;15344;52.342;-1.290;2023-01-28T08:22:51;101812.09;;;9.70;62.88
28027;BME280;15344;52.342;-1.290;2023-01-28T08:25:17;101817.60;;;9.52;63.42
28027;BME280;15344;52.342;-1.290;2023-01-28T08:27:42;101828.78;;;9.46;62.90
28027;BME280;15344;52.342;-1.290;2023-01-28T08:30:09;101835.01;;;9.40;63.40
28027;BME280;15344;52.342;-1.290;2023-01-28T08:32:34;101836.34;;;9.20;62.69
28027;BME280;15344;52.342;-1.290;2023-01-28T08:34:59;101825.22;;;10.12;61.64
28027;BME280;15344;52.342;-1.290;2023-01-28T08:37:25;101809.93;;;9.58;60.93
28027;BME280;15344;52.342;-1.290;2023-01-28T08:39:50;101810.49;;;9.78;61.67
28027;BME280;15344;52.342;-1.290;2023-01-28T08:42:16;101814.94;;;10.38;61.15
28027;BME280;15344;52.342;-1.290;2023-01-28T08:44:41;101816.87;;;9.71;62.48
28027;BME280;15344;52.342;-1.290;2023-01-28T08:47:07;101823.68;;;9.56;62.66
28027;BME280;15344;52.342;-1.290;2023-01-28T08:49:32;101820.61;;;9.91;62.28
28027;BME280;15344;52.342;-1.290;2023-01-28T08:51:57;101823.30;;;10.05;62.38
28027;BME280;15344;52.342;-1.290;2023-01-28T08:54:22;101829.64;;;9.82;62.81
28027;BME280;15344;52.342;-1.290;2023-01-28T08:56:48;101828.29;;;10.12;61.53
28027;BME280;15344;52.342;-1.290;2023-01-28T08:59:13;101827.33;;;10.17;62.13
28027;BME280;15344;52.342;-1.290;2023-01-28T09:01:39;101819.08;;;9.75;62.32
28027;BME280;15344;52.342;-1.290;2023-01-28T09:04:05;101810.52;;;9.54;61.39
28027;BME280;15344;52.342;-1.290;2023-01-28T09:06:30;101807.40;;;10.17;61.33
28027;BME280;15344;52.342;-1.290;2023-01-28T09:08:56;101805.16;;;10.03;60.56
28027;BME280;15344;52.342;-1.290;2023-01-28T09:11:20;101804.75;;;9.95;60.80
28027;BME280;15344;52.342;-1.290;2023-01-28T09:13:46;101800.05;;;10.21;61.16
28027;BME280;15344;52.342;-1.290;2023-01-28T09:16:12;101800.28;;;10.36;61.21
28027;BME280;15344;52.342;-1.290;2023-01-28T09:18:37;101797.30;;;9.96;62.24
28027;BME280;15344;52.342;-1.290;2023-01-28T09:21:05;101800.48;;;9.68;61.82
28027;BME280;15344;52.342;-1.290;2023-01-28T09:23:28;101801.15;;;10.44;61.70
28027;BME280;15344;52.342;-1.290;2023-01-28T09:25:59;101792.71;;;10.57;61.70
28027;BME280;15344;52.342;-1.290;2023-01-28T09:28:19;101787.42;;;10.47;61.02
28027;BME280;15344;52.342;-1.290;2023-01-28T09:30:46;101784.21;;;10.56;60.96
28027;BME280;15344;52.342;-1.290;2023-01-28T09:33:11;101779.53;;;9.75;62.20
28027;BME280;15344;52.342;-1.290;2023-01-28T09:35:36;101775.70;;;10.29;62.06
28027;BME280;15344;52.342;-1.290;2023-01-28T09:38:02;101777.19;;;10.34;61.88
28027;BME280;15344;52.342;-1.290;2023-01-28T09:40:33;101779.25;;;10.01;63.01
28027;BME280;15344;52.342;-1.290;2023-01-28T09:43:02;101780.93;;;9.56;64.33
28027;BME280;15344;52.342;-1.290;2023-01-28T09:45:20;101783.65;;;9.99;64.57
28027;BME280;15344;52.342;-1.290;2023-01-28T09:47:46;101778.41;;;9.56;65.18
28027;BME280;15344;52.342;-1.290;2023-01-28T09:50:15;101784.38;;;9.28;65.57
28027;BME280;15344;52.342;-1.290;2023-01-28T09:52:38;101780.80;;;9.05;67.47
28027;BME280;15344;52.342;-1.290;2023-01-28T09:55:03;101781.94;;;8.93;68.61
28027;BME280;15344;52.342;-1.290;2023-01-28T09:57:28;101781.66;;;9.38;69.00
28027;BME280;15344;52.342;-1.290;2023-01-28T09:59:51;101776.18;;;9.45;69.08
28027;BME280;15344;52.342;-1.290;2023-01-28T10:02:34;101777.69;;;8.98;71.11
28027;BME280;15344;52.342;-1.290;2023-01-28T10:04:49;101772.65;;;9.37;69.34
28027;BME280;15344;52.342;-1.290;2023-01-28T10:07:19;101772.85;;;9.10;69.69
28027;BME280;15344;52.342;-1.290;2023-01-28T10:09:41;101769.66;;;9.48;68.68
28027;BME280;15344;52.342;-1.290;2023-01-28T10:12:09;101769.10;;;9.69;68.04
28027;BME280;15344;52.342;-1.290;2023-01-28T10:14:31;101769.54;;;9.69;67.68
28027;BME280;15344;52.342;-1.290;2023-01-28T10:16:53;101773.75;;;9.80;67.42
28027;BME280;15344;52.342;-1.290;2023-01-28T10:19:19;101778.38;;;10.22;67.42
28027;BME280;15344;52.342;-1.290;2023-01-28T10:21:43;101779.70;;;9.96;66.96
28027;BME280;15344;52.342;-1.290;2023-01-28T10:24:11;101778.78;;;10.30;65.55
28027;BME280;15344;52.342;-1.290;2023-01-28T10:26:34;101781.26;;;9.93;65.81
28027;BME280;15344;52.342;-1.290;2023-01-28T10:29:02;101780.60;;;9.32;68.48
28027;BME280;15344;52.342;-1.290;2023-01-28T10:31:23;101785.14;;;9.73;67.84
28027;BME280;15344;52.342;-1.290;2023-01-28T10:33:47;101779.74;;;9.91;68.75
28027;BME280;15344;52.342;-1.290;2023-01-28T10:36:14;101780.49;;;9.94;68.95
28027;BME280;15344;52.342;-1.290;2023-01-28T10:38:39;101781.51;;;9.87;68.55
28027;BME280;15344;52.342;-1.290;2023-01-28T10:41:04;101782.64;;;10.06;67.05
28027;BME280;15344;52.342;-1.290;2023-01-28T10:43:31;101786.02;;;10.33;67.14
28027;BME280;15344;52.342;-1.290;2023-01-28T10:46:00;101784.51;;;9.41;69.65
28027;BME280;15344;52.342;-1.290;2023-01-28T10:48:23;101787.36;;;10.74;65.99
28027;BME280;15344;52.342;-1.290;2023-01-28T10:50:50;101786.67;;;10.72;65.94
28027;BME280;15344;52.342;-1.290;2023-01-28T10:53:11;101787.51;;;9.68;68.92
28027;BME280;15344;52.342;-1.290;2023-01-28T10:55:45;101790.15;;;10.08;69.37
28027;BME280;15344;52.342;-1.290;2023-01-28T10:58:03;101793.30;;;10.51;67.36
28027;BME280;15344;52.342;-1.290;2023-01-28T11:00:30;101791.46;;;10.30;68.92
28027;BME280;15344;52.342;-1.290;2023-01-28T11:02:53;101788.09;;;9.88;70.61
28027;BME280;15344;52.342;-1.290;2023-01-28T11:05:21;101788.21;;;9.30;72.76
28027;BME280;15344;52.342;-1.290;2023-01-28T11:07:44;101792.29;;;10.41;70.31
28027;BME280;15344;52.342;-1.290;2023-01-28T11:12:35;101780.96;;;9.52;72.47
28027;BME280;15344;52.342;-1.290;2023-01-28T11:15:02;101779.31;;;10.17;72.67
28027;BME280;15344;52.342;-1.290;2023-01-28T11:17:27;101785.02;;;10.11;71.30
28027;BME280;15344;52.342;-1.290;2023-01-28T11:19:52;101786.18;;;10.17;69.92
28027;BME280;15344;52.342;-1.290;2023-01-28T11:22:22;101785.30;;;10.11;68.82
28027;BME280;15344;52.342;-1.290;2023-01-28T11:24:42;101779.63;;;10.57;68.27
28027;BME280;15344;52.342;-1.290;2023-01-28T11:27:14;101777.15;;;9.96;70.54
28027;BME280;15344;52.342;-1.290;2023-01-28T11:29:33;101776.84;;;9.72;70.95
28027;BME280;15344;52.342;-1.290;2023-01-28T11:31:59;101776.43;;;10.93;67.76
28027;BME280;15344;52.342;-1.290;2023-01-28T11:34:26;101773.20;;;10.80;67.57
28027;BME280;15344;52.342;-1.290;2023-01-28T11:36:51;101775.08;;;9.93;69.72
28027;BME280;15344;52.342;-1.290;2023-01-28T11:39:19;101782.52;;;10.25;69.44
28027;BME280;15344;52.342;-1.290;2023-01-28T11:41:39;101781.34;;;10.48;69.25
28027;BME280;15344;52.342;-1.290;2023-01-28T11:44:12;101785.69;;;10.43;68.60
28027;BME280;15344;52.342;-1.290;2023-01-28T11:46:46;101790.89;;;10.71;67.04
28027;BME280;15344;52.342;-1.290;2023-01-28T11:49:00;101795.41;;;11.35;66.81
28027;BME280;15344;52.342;-1.290;2023-01-28T11:51:31;101794.51;;;11.20;67.59
28027;BME280;15344;52.342;-1.290;2023-01-28T11:53:57;101789.63;;;10.70;69.47
28027;BME280;15344;52.342;-1.290;2023-01-28T11:56:22;101783.99;;;10.56;69.12
28027;BME280;15344;52.342;-1.290;2023-01-28T11:58:43;101781.67;;;11.11;67.16
28027;BME280;15344;52.342;-1.290;2023-01-28T12:01:09;101782.59;;;10.92;68.24
28027;BME280;15344;52.342;-1.290;2023-01-28T12:03:37;101784.42;;;11.45;67.91
28027;BME280;15344;52.342;-1.290;2023-01-28T12:05:55;101786.26;;;11.15;67.35
28027;BME280;15344;52.342;-1.290;2023-01-28T12:08:22;101783.90;;;10.89;68.53
28027;BME280;15344;52.342;-1.290;2023-01-28T12:10:50;101787.08;;;10.96;67.97
28027;BME280;15344;52.342;-1.290;2023-01-28T12:13:22;101782.17;;;11.29;68.27
28027;BME280;15344;52.342;-1.290;2023-01-28T12:18:09;101767.74;;;11.46;67.54
28027;BME280;15344;52.342;-1.290;2023-01-28T12:20:28;101766.77;;;11.02;68.65
28027;BME280;15344;52.342;-1.290;2023-01-28T12:23:02;101762.26;;;10.76;68.45
28027;BME280;15344;52.342;-1.290;2023-01-28T12:25:23;101756.75;;;11.26;66.81
28027;BME280;15344;52.342;-1.290;2023-01-28T12:27:47;101759.00;;;11.74;66.06
28027;BME280;15344;52.342;-1.290;2023-01-28T12:30:17;101749.44;;;11.33;66.37
28027;BME280;15344;52.342;-1.290;2023-01-28T12:32:45;101742.55;;;11.89;66.22
28027;BME280;15344;52.342;-1.290;2023-01-28T12:35:13;101739.32;;;11.49;67.67
28027;BME280;15344;52.342;-1.290;2023-01-28T12:37:32;101740.72;;;11.10;69.84
28027;BME280;15344;52.342;-1.290;2023-01-28T12:39:59;101740.83;;;10.91;70.95
28027;BME280;15344;52.342;-1.290;2023-01-28T12:42:17;101736.43;;;11.03;69.65